sensor_id;sensor_type;location;lat;lon;timestamp;temperature;humidity
70851;DHT22;58475;49.662;9.636;2023-03-01T00:00:41;1.44;81.86
70851;DHT22;58475;49.662;9.636;2023-03-01T00:03:06;1.44;82.21
70851;DHT22;58475;49.662;9.636;2023-03-01T00:05:32;1.47;82.42
70851;DHT22;58475;49.662;9.636;2023-03-01T00:07:58;1.44;82.20
70851;DHT22;58475;49.662;9.636;2023-03-01T00:10:23;1.44;82.32
70851;DHT22;58475;49.662;9.636;2023-03-01T00:12:49;1.46;82.36
70851;DHT22;58475;49.662;9.636;2023-03-01T00:15:14;1.46;82.37
70851;DHT22;58475;49.662;9.636;2023-03-01T00:17:40;1.43;82.09
70851;DHT22;58475;49.662;9.636;2023-03-01T00:20:06;1.44;82.41
70851;DHT22;58475;49.662;9.636;2023-03-01T00:22:36;1.43;82.36
70851;DHT22;58475;49.662;9.636;2023-03-01T00:25:01;1.40;82.18
70851;DHT22;58475;49.662;9.636;2023-03-01T00:27:27;1.42;81.97
70851;DHT22;58475;49.662;9.636;2023-03-01T00:29:52;1.44;82.19
70851;DHT22;58475;49.662;9.636;2023-03-01T00:32:18;1.40;81.93
70851;DHT22;58475;49.662;9.636;2023-03-01T00:34:43;1.40;81.78
70851;DHT22;58475;49.662;9.636;2023-03-01T00:37:23;1.40;82.32
70851;DHT22;58475;49.662;9.636;2023-03-01T00:39:49;1.40;82.32
70851;DHT22;58475;49.662;9.636;2023-03-01T00:42:15;1.40;82.32
70851;DHT22;58475;49.662;9.636;2023-03-01T00:44:41;1.37;82.35
70851;DHT22;58475;49.662;9.636;2023-03-01T00:47:06;1.40;82.52
70851;DHT22;58475;49.662;9.636;2023-03-01T00:49:32;1.39;82.21
70851;DHT22;58475;49.662;9.636;2023-03-01T00:51:57;1.40;82.29
70851;DHT22;58475;49.662;9.636;2023-03-01T00:54:23;1.36;82.28
70851;DHT22;58475;49.662;9.636;2023-03-01T00:56:48;1.37;82.36
70851;DHT22;58475;49.662;9.636;2023-03-01T00:59:14;1.39;82.33
70851;DHT22;58475;49.662;9.636;2023-03-01T01:01:39;1.33;82.10
70851;DHT22;58475;49.662;9.636;2023-03-01T01:04:11;1.36;82.14
70851;DHT22;58475;49.662;9.636;2023-03-01T01:06:39;1.37;82.45
70851;DHT22;58475;49.662;9.636;2023-03-01T01:09:08;1.36;82.09
70851;DHT22;58475;49.662;9.636;2023-03-01T01:11:35;1.37;82.58
70851;DHT22;58475;49.662;9.636;2023-03-01T01:14:02;1.32;82.30
70851;DHT22;58475;49.662;9.636;2023-03-01T01:16:29;1.33;82.37
70851;DHT22;58475;49.662;9.636;2023-03-01T01:18:55;1.34;82.38
70851;DHT22;58475;49.662;9.636;2023-03-01T01:21:23;1.36;82.57
70851;DHT22;58475;49.662;9.636;2023-03-01T01:23:50;1.34;82.48
70851;DHT22;58475;49.662;9.636;2023-03-01T01:26:18;1.33;82.47
70851;DHT22;58475;49.662;9.636;2023-03-01T01:28:44;1.33;82.79
70851;DHT22;58475;49.662;9.636;2023-03-01T01:31:10;1.32;82.12
70851;DHT22;58475;49.662;9.636;2023-03-01T01:33:35;1.32;82.60
70851;DHT22;58475;49.662;9.636;2023-03-01T01:36:03;1.27;82.41
70851;DHT22;58475;49.662;9.636;2023-03-01T01:38:28;1.29;82.53
70851;DHT22;58475;49.662;9.636;2023-03-01T01:40:54;1.32;82.61
70851;DHT22;58475;49.662;9.636;2023-03-01T01:43:28;1.32;82.36
70851;DHT22;58475;49.662;9.636;2023-03-01T01:46:06;1.33;82.66
70851;DHT22;58475;49.662;9.636;2023-03-01T01:48:55;1.32;82.81
70851;DHT22;58475;49.662;9.636;2023-03-01T01:51:27;1.32;82.66
70851;DHT22;58475;49.662;9.636;2023-03-01T01:53:57;1.32;82.69
70851;DHT22;58475;49.662;9.636;2023-03-01T01:56:26;1.29;82.57
70851;DHT22;58475;49.662;9.636;2023-03-01T01:58:53;1.27;82.06
70851;DHT22;58475;49.662;9.636;2023-03-01T02:01:20;1.27;82.50
70851;DHT22;58475;49.662;9.636;2023-03-01T02:03:46;1.27;82.32
70851;DHT22;58475;49.662;9.636;2023-03-01T02:08:44;1.29;82.73
70851;DHT22;58475;49.662;9.636;2023-03-01T02:11:12;1.23;82.33
70851;DHT22;58475;49.662;9.636;2023-03-01T02:13:40;1.24;82.14
70851;DHT22;58475;49.662;9.636;2023-03-01T02:16:11;1.20;82.31
70851;DHT22;58475;49.662;9.636;2023-03-01T02:18:39;1.22;82.43
70851;DHT22;58475;49.662;9.636;2023-03-01T02:23:50;1.24;82.54
70851;DHT22;58475;49.662;9.636;2023-03-01T02:26:29;1.24;82.65
70851;DHT22;58475;49.662;9.636;2023-03-01T02:28:58;1.20;82.48
70851;DHT22;58475;49.662;9.636;2023-03-01T02:31:24;1.20;82.54
70851;DHT22;58475;49.662;9.636;2023-03-01T02:34:18;1.20;82.44
70851;DHT22;58475;49.662;9.636;2023-03-01T02:36:51;1.24;82.85
70851;DHT22;58475;49.662;9.636;2023-03-01T02:39:23;1.20;82.32
70851;DHT22;58475;49.662;9.636;2023-03-01T02:41:52;1.19;82.37
70851;DHT22;58475;49.662;9.636;2023-03-01T02:44:19;1.17;82.52
70851;DHT22;58475;49.662;9.636;2023-03-01T02:46:50;1.19;81.96
70851;DHT22;58475;49.662;9.636;2023-03-01T02:49:28;1.13;82.15
70851;DHT22;58475;49.662;9.636;2023-03-01T02:52:26;1.15;82.44
70851;DHT22;58475;49.662;9.636;2023-03-01T02:55:11;1.13;82.24
70851;DHT22;58475;49.662;9.636;2023-03-01T02:57:40;1.16;82.07
70851;DHT22;58475;49.662;9.636;2023-03-01T03:00:13;1.07;81.77
70851;DHT22;58475;49.662;9.636;2023-03-01T03:02:46;1.07;82.14
70851;DHT22;58475;49.662;9.636;2023-03-01T03:05:22;1.09;82.53
70851;DHT22;58475;49.662;9.636;2023-03-01T03:07:51;1.09;82.13
70851;DHT22;58475;49.662;9.636;2023-03-01T03:10:22;1.13;82.39
70851;DHT22;58475;49.662;9.636;2023-03-01T03:12:52;1.16;82.54
70851;DHT22;58475;49.662;9.636;2023-03-01T03:15:19;1.12;82.30
70851;DHT22;58475;49.662;9.636;2023-03-01T03:17:46;1.12;82.49
70851;DHT22;58475;49.662;9.636;2023-03-01T03:20:13;1.09;82.00
70851;DHT22;58475;49.662;9.636;2023-03-01T03:22:45;1.05;81.83
70851;DHT22;58475;49.662;9.636;2023-03-01T03:25:10;1.05;82.33
70851;DHT22;58475;49.662;9.636;2023-03-01T03:27:46;1.06;82.38
70851;DHT22;58475;49.662;9.636;2023-03-01T03:30:15;1.06;82.38
70851;DHT22;58475;49.662;9.636;2023-03-01T03:32:43;1.06;82.42
70851;DHT22;58475;49.662;9.636;2023-03-01T03:35:28;1.07;82.27
70851;DHT22;58475;49.662;9.636;2023-03-01T03:37:56;1.06;82.33
70851;DHT22;58475;49.662;9.636;2023-03-01T03:40:40;0.99;82.07
70851;DHT22;58475;49.662;9.636;2023-03-01T03:43:09;0.99;81.98
70851;DHT22;58475;49.662;9.636;2023-03-01T03:45:35;0.99;81.64
70851;DHT22;58475;49.662;9.636;2023-03-01T03:48:03;0.96;81.91
70851;DHT22;58475;49.662;9.636;2023-03-01T03:50:29;0.97;82.39
70851;DHT22;58475;49.662;9.636;2023-03-01T03:52:55;0.97;82.17
70851;DHT22;58475;49.662;9.636;2023-03-01T03:55:20;0.96;82.06
70851;DHT22;58475;49.662;9.636;2023-03-01T03:57:48;1.02;82.59
70851;DHT22;58475;49.662;9.636;2023-03-01T04:00:19;0.96;82.16
70851;DHT22;58475;49.662;9.636;2023-03-01T04:02:46;0.96;81.67
70851;DHT22;58475;49.662;9.636;2023-03-01T04:05:14;0.89;82.05
70851;DHT22;58475;49.662;9.636;2023-03-01T04:07:41;0.91;82.32
70851;DHT22;58475;49.662;9.636;2023-03-01T04:10:10;0.89;81.93
70851;DHT22;58475;49.662;9.636;2023-03-01T04:12:36;0.91;81.59
70851;DHT22;58475;49.662;9.636;2023-03-01T04:15:07;0.88;81.60
70851;DHT22;58475;49.662;9.636;2023-03-01T04:17:43;0.89;82.36
70851;DHT22;58475;49.662;9.636;2023-03-01T04:20:13;0.92;82.63
70851;DHT22;58475;49.662;9.636;2023-03-01T04:22:39;0.92;82.59
70851;DHT22;58475;49.662;9.636;2023-03-01T04:25:05;0.92;82.51
70851;DHT22;58475;49.662;9.636;2023-03-01T04:27:34;0.88;82.55
70851;DHT22;58475;49.662;9.636;2023-03-01T04:30:00;0.93;82.75
70851;DHT22;58475;49.662;9.636;2023-03-01T04:32:25;0.88;82.27
70851;DHT22;58475;49.662;9.636;2023-03-01T04:34:51;0.85;82.68
70851;DHT22;58475;49.662;9.636;2023-03-01T04:37:16;0.88;82.72
70851;DHT22;58475;49.662;9.636;2023-03-01T04:39:42;0.86;82.52
70851;DHT22;58475;49.662;9.636;2023-03-01T04:42:17;0.85;82.72
70851;DHT22;58475;49.662;9.636;2023-03-01T04:44:43;0.85;82.61
70851;DHT22;58475;49.662;9.636;2023-03-01T04:47:09;0.84;82.36
70851;DHT22;58475;49.662;9.636;2023-03-01T04:49:35;0.85;82.57
70851;DHT22;58475;49.662;9.636;2023-03-01T04:52:00;0.84;82.28
70851;DHT22;58475;49.662;9.636;2023-03-01T04:54:32;0.82;82.58
70851;DHT22;58475;49.662;9.636;2023-03-01T04:56:59;0.75;82.61
70851;DHT22;58475;49.662;9.636;2023-03-01T04:59:25;0.75;82.20
70851;DHT22;58475;49.662;9.636;2023-03-01T05:01:51;0.71;82.09
70851;DHT22;58475;49.662;9.636;2023-03-01T05:04:17;0.76;81.97
70851;DHT22;58475;49.662;9.636;2023-03-01T05:06:43;0.78;82.29
70851;DHT22;58475;49.662;9.636;2023-03-01T05:09:08;0.75;82.15
70851;DHT22;58475;49.662;9.636;2023-03-01T05:11:34;0.74;82.64
70851;DHT22;58475;49.662;9.636;2023-03-01T05:14:05;0.75;82.60
70851;DHT22;58475;49.662;9.636;2023-03-01T05:16:32;0.74;82.75
70851;DHT22;58475;49.662;9.636;2023-03-01T05:18:58;0.74;82.75
70851;DHT22;58475;49.662;9.636;2023-03-01T05:21:24;0.69;82.26
70851;DHT22;58475;49.662;9.636;2023-03-01T05:23:50;0.66;82.31
70851;DHT22;58475;49.662;9.636;2023-03-01T05:26:18;0.62;82.46
70851;DHT22;58475;49.662;9.636;2023-03-01T05:28:43;0.66;82.68
70851;DHT22;58475;49.662;9.636;2023-03-01T05:31:09;0.68;82.46
70851;DHT22;58475;49.662;9.636;2023-03-01T05:33:36;0.69;82.81
70851;DHT22;58475;49.662;9.636;2023-03-01T05:36:02;0.66;82.69
70851;DHT22;58475;49.662;9.636;2023-03-01T05:38:28;0.64;82.07
70851;DHT22;58475;49.662;9.636;2023-03-01T05:40:53;0.62;82.35
70851;DHT22;58475;49.662;9.636;2023-03-01T05:43:19;0.58;82.02
70851;DHT22;58475;49.662;9.636;2023-03-01T05:45:44;0.58;82.22
70851;DHT22;58475;49.662;9.636;2023-03-01T05:48:10;0.54;82.67
70851;DHT22;58475;49.662;9.636;2023-03-01T05:50:41;0.60;82.35
70851;DHT22;58475;49.662;9.636;2023-03-01T05:53:13;0.57;82.34
70851;DHT22;58475;49.662;9.636;2023-03-01T05:55:40;0.55;82.17
70851;DHT22;58475;49.662;9.636;2023-03-01T05:58:11;0.57;82.59
70851;DHT22;58475;49.662;9.636;2023-03-01T06:00:37;0.54;82.56
70851;DHT22;58475;49.662;9.636;2023-03-01T06:03:02;0.53;82.85
70851;DHT22;58475;49.662;9.636;2023-03-01T06:05:29;0.54;82.63
70851;DHT22;58475;49.662;9.636;2023-03-01T06:07:55;0.55;81.98
70851;DHT22;58475;49.662;9.636;2023-03-01T06:10:23;0.57;82.93
70851;DHT22;58475;49.662;9.636;2023-03-01T06:12:48;0.53;82.57
70851;DHT22;58475;49.662;9.636;2023-03-01T06:15:15;0.50;82.60
70851;DHT22;58475;49.662;9.636;2023-03-01T06:17:43;0.53;82.73
70851;DHT22;58475;49.662;9.636;2023-03-01T06:22:37;0.54;82.94
70851;DHT22;58475;49.662;9.636;2023-03-01T06:25:04;0.53;82.94
70851;DHT22;58475;49.662;9.636;2023-03-01T06:27:30;0.51;82.40
70851;DHT22;58475;49.662;9.636;2023-03-01T06:29:55;0.51;82.63
70851;DHT22;58475;49.662;9.636;2023-03-01T06:32:20;0.50;82.52
70851;DHT22;58475;49.662;9.636;2023-03-01T06:34:46;0.51;82.78
70851;DHT22;58475;49.662;9.636;2023-03-01T06:37:12;0.53;82.92
70851;DHT22;58475;49.662;9.636;2023-03-01T06:39:37;0.50;82.83
70851;DHT22;58475;49.662;9.636;2023-03-01T06:42:03;0.47;82.62
70851;DHT22;58475;49.662;9.636;2023-03-01T06:44:28;0.47;83.07
70851;DHT22;58475;49.662;9.636;2023-03-01T06:46:53;0.47;82.56
70851;DHT22;58475;49.662;9.636;2023-03-01T06:49:20;0.50;83.09
70851;DHT22;58475;49.662;9.636;2023-03-01T06:51:46;0.51;83.05
70851;DHT22;58475;49.662;9.636;2023-03-01T06:54:12;0.53;83.03
70851;DHT22;58475;49.662;9.636;2023-03-01T06:56:38;0.48;82.51
70851;DHT22;58475;49.662;9.636;2023-03-01T06:59:03;0.48;83.05
70851;DHT22;58475;49.662;9.636;2023-03-01T07:01:30;0.51;82.83
70851;DHT22;58475;49.662;9.636;2023-03-01T07:03:55;0.48;82.37
70851;DHT22;58475;49.662;9.636;2023-03-01T07:06:21;0.48;82.83
70851;DHT22;58475;49.662;9.636;2023-03-01T07:08:47;0.51;82.97
70851;DHT22;58475;49.662;9.636;2023-03-01T07:11:13;0.48;82.67
70851;DHT22;58475;49.662;9.636;2023-03-01T07:13:38;0.45;82.27
70851;DHT22;58475;49.662;9.636;2023-03-01T07:16:04;0.45;82.64
70851;DHT22;58475;49.662;9.636;2023-03-01T07:18:29;0.51;82.97
70851;DHT22;58475;49.662;9.636;2023-03-01T07:20:55;0.50;82.42
70851;DHT22;58475;49.662;9.636;2023-03-01T07:23:20;0.45;82.55
70851;DHT22;58475;49.662;9.636;2023-03-01T07:25:52;0.43;82.42
70851;DHT22;58475;49.662;9.636;2023-03-01T07:28:18;0.47;82.35
70851;DHT22;58475;49.662;9.636;2023-03-01T07:30:43;0.45;82.22
70851;DHT22;58475;49.662;9.636;2023-03-01T07:33:09;0.47;82.90
70851;DHT22;58475;49.662;9.636;2023-03-01T07:35:35;0.53;82.38
70851;DHT22;58475;49.662;9.636;2023-03-01T07:38:00;0.48;82.31
70851;DHT22;58475;49.662;9.636;2023-03-01T07:40:26;0.53;82.96
70851;DHT22;58475;49.662;9.636;2023-03-01T07:42:55;0.51;82.66
70851;DHT22;58475;49.662;9.636;2023-03-01T07:45:21;0.51;83.04
70851;DHT22;58475;49.662;9.636;2023-03-01T07:47:46;0.51;82.81
70851;DHT22;58475;49.662;9.636;2023-03-01T07:50:12;0.53;82.64
70851;DHT22;58475;49.662;9.636;2023-03-01T07:52:38;0.55;82.83
70851;DHT22;58475;49.662;9.636;2023-03-01T07:55:04;0.53;82.71
70851;DHT22;58475;49.662;9.636;2023-03-01T07:57:30;0.48;82.42
70851;DHT22;58475;49.662;9.636;2023-03-01T07:59:55;0.54;82.63
70851;DHT22;58475;49.662;9.636;2023-03-01T08:02:20;0.53;82.83
70851;DHT22;58475;49.662;9.636;2023-03-01T08:04:46;0.60;83.04
70851;DHT22;58475;49.662;9.636;2023-03-01T08:07:11;0.61;83.13
70851;DHT22;58475;49.662;9.636;2023-03-01T08:09:37;0.61;82.98
70851;DHT22;58475;49.662;9.636;2023-03-01T08:12:03;0.62;82.67
70851;DHT22;58475;49.662;9.636;2023-03-01T08:14:30;0.64;83.03
70851;DHT22;58475;49.662;9.636;2023-03-01T08:16:56;0.66;83.02
70851;DHT22;58475;49.662;9.636;2023-03-01T08:19:23;0.68;83.18
70851;DHT22;58475;49.662;9.636;2023-03-01T08:21:48;0.72;83.23
70851;DHT22;58475;49.662;9.636;2023-03-01T08:24:14;0.71;83.33
70851;DHT22;58475;49.662;9.636;2023-03-01T08:26:39;0.76;83.36
70851;DHT22;58475;49.662;9.636;2023-03-01T08:29:05;0.78;83.33
70851;DHT22;58475;49.662;9.636;2023-03-01T08:31:37;0.81;83.06
70851;DHT22;58475;49.662;9.636;2023-03-01T08:34:15;0.74;82.40
70851;DHT22;58475;49.662;9.636;2023-03-01T08:36:43;0.76;83.09
70851;DHT22;58475;49.662;9.636;2023-03-01T08:39:11;0.85;83.06
70851;DHT22;58475;49.662;9.636;2023-03-01T08:41:37;0.84;83.19
70851;DHT22;58475;49.662;9.636;2023-03-01T08:44:03;0.88;83.08
70851;DHT22;58475;49.662;9.636;2023-03-01T08:46:31;0.91;83.17
70851;DHT22;58475;49.662;9.636;2023-03-01T08:48:57;0.89;83.09
70851;DHT22;58475;49.662;9.636;2023-03-01T08:51:23;0.89;83.20
70851;DHT22;58475;49.662;9.636;2023-03-01T08:53:49;0.96;83.19
70851;DHT22;58475;49.662;9.636;2023-03-01T08:56:15;0.97;83.28
70851;DHT22;58475;49.662;9.636;2023-03-01T08:58:44;1.02;83.37
70851;DHT22;58475;49.662;9.636;2023-03-01T09:01:12;1.00;83.34
70851;DHT22;58475;49.662;9.636;2023-03-01T09:03:38;1.06;83.35
70851;DHT22;58475;49.662;9.636;2023-03-01T09:06:05;1.03;83.13
70851;DHT22;58475;49.662;9.636;2023-03-01T09:08:35;1.07;83.35
70851;DHT22;58475;49.662;9.636;2023-03-01T09:11:05;1.12;83.44
70851;DHT22;58475;49.662;9.636;2023-03-01T09:13:31;1.06;82.58
70851;DHT22;58475;49.662;9.636;2023-03-01T09:15:58;1.03;82.38
70851;DHT22;58475;49.662;9.636;2023-03-01T09:18:23;1.06;83.19
70851;DHT22;58475;49.662;9.636;2023-03-01T09:20:49;1.05;82.71
70851;DHT22;58475;49.662;9.636;2023-03-01T09:23:14;1.10;82.85
70851;DHT22;58475;49.662;9.636;2023-03-01T09:25:39;1.10;82.54
70851;DHT22;58475;49.662;9.636;2023-03-01T09:28:05;1.07;81.95
70851;DHT22;58475;49.662;9.636;2023-03-01T09:30:30;1.12;81.94
70851;DHT22;58475;49.662;9.636;2023-03-01T09:32:56;1.22;83.07
70851;DHT22;58475;49.662;9.636;2023-03-01T09:35:22;1.23;83.08
70851;DHT22;58475;49.662;9.636;2023-03-01T09:37:48;1.33;83.26
70851;DHT22;58475;49.662;9.636;2023-03-01T09:40:26;1.34;83.32
70851;DHT22;58475;49.662;9.636;2023-03-01T09:43:13;1.37;83.23
70851;DHT22;58475;49.662;9.636;2023-03-01T09:45:43;1.32;82.91
70851;DHT22;58475;49.662;9.636;2023-03-01T09:48:15;1.39;83.24
70851;DHT22;58475;49.662;9.636;2023-03-01T09:50:43;1.42;83.11
70851;DHT22;58475;49.662;9.636;2023-03-01T09:53:32;1.48;83.07
70851;DHT22;58475;49.662;9.636;2023-03-01T09:58:54;1.47;82.53
70851;DHT22;58475;49.662;9.636;2023-03-01T10:06:31;1.50;82.26
70851;DHT22;58475;49.662;9.636;2023-03-01T10:09:02;1.43;81.19
70851;DHT22;58475;49.662;9.636;2023-03-01T10:11:33;1.50;82.63
70851;DHT22;58475;49.662;9.636;2023-03-01T10:14:23;1.58;82.44
70851;DHT22;58475;49.662;9.636;2023-03-01T10:17:01;1.65;82.63
70851;DHT22;58475;49.662;9.636;2023-03-01T10:19:40;1.70;82.65
70851;DHT22;58475;49.662;9.636;2023-03-01T10:22:24;1.71;82.59
70851;DHT22;58475;49.662;9.636;2023-03-01T10:24:51;1.71;82.58
70851;DHT22;58475;49.662;9.636;2023-03-01T10:27:20;1.67;81.65
70851;DHT22;58475;49.662;9.636;2023-03-01T10:32:26;1.79;82.40
70851;DHT22;58475;49.662;9.636;2023-03-01T10:34:52;1.78;81.74
70851;DHT22;58475;49.662;9.636;2023-03-01T10:37:19;1.79;82.05
70851;DHT22;58475;49.662;9.636;2023-03-01T10:40:06;1.81;82.09
70851;DHT22;58475;49.662;9.636;2023-03-01T10:42:46;1.79;81.43
70851;DHT22;58475;49.662;9.636;2023-03-01T10:50:34;1.92;81.41
70851;DHT22;58475;49.662;9.636;2023-03-01T10:53:04;1.95;81.08
70851;DHT22;58475;49.662;9.636;2023-03-01T10:55:37;2.02;81.31
70851;DHT22;58475;49.662;9.636;2023-03-01T10:58:19;2.02;80.82
70851;DHT22;58475;49.662;9.636;2023-03-01T11:00:58;2.12;81.74
70851;DHT22;58475;49.662;9.636;2023-03-01T11:03:38;2.26;81.91
70851;DHT22;58475;49.662;9.636;2023-03-01T11:08:46;2.39;82.00
70851;DHT22;58475;49.662;9.636;2023-03-01T11:13:55;2.46;81.07
70851;DHT22;58475;49.662;9.636;2023-03-01T11:16:26;2.53;81.13
70851;DHT22;58475;49.662;9.636;2023-03-01T11:19:01;2.53;80.04
70851;DHT22;58475;49.662;9.636;2023-03-01T11:21:31;2.61;80.09
70851;DHT22;58475;49.662;9.636;2023-03-01T11:24:00;2.58;79.43
70851;DHT22;58475;49.662;9.636;2023-03-01T11:26:28;2.60;79.42
70851;DHT22;58475;49.662;9.636;2023-03-01T11:28:58;2.61;79.39
70851;DHT22;58475;49.662;9.636;2023-03-01T11:31:28;2.73;80.40
70851;DHT22;58475;49.662;9.636;2023-03-01T11:34:12;2.77;79.21
70851;DHT22;58475;49.662;9.636;2023-03-01T11:36:53;2.81;80.08
70851;DHT22;58475;49.662;9.636;2023-03-01T11:42:00;2.90;79.41
70851;DHT22;58475;49.662;9.636;2023-03-01T11:44:29;2.90;78.90
70851;DHT22;58475;49.662;9.636;2023-03-01T11:47:18;2.88;78.87
70851;DHT22;58475;49.662;9.636;2023-03-01T12:01:09;3.09;79.55
70851;DHT22;58475;49.662;9.636;2023-03-01T12:06:34;3.22;78.91
70851;DHT22;58475;49.662;9.636;2023-03-01T12:09:09;3.24;79.38
70851;DHT22;58475;49.662;9.636;2023-03-01T12:15:09;3.25;78.44
70851;DHT22;58475;49.662;9.636;2023-03-01T12:17:43;3.31;79.28
70851;DHT22;58475;49.662;9.636;2023-03-01T12:20:25;3.39;79.73
70851;DHT22;58475;49.662;9.636;2023-03-01T12:25:41;3.52;79.49
70851;DHT22;58475;49.662;9.636;2023-03-01T12:28:31;3.53;79.21
70851;DHT22;58475;49.662;9.636;2023-03-01T12:36:53;3.58;78.20
70851;DHT22;58475;49.662;9.636;2023-03-01T12:39:38;3.64;78.87
70851;DHT22;58475;49.662;9.636;2023-03-01T12:45:01;3.67;78.66
70851;DHT22;58475;49.662;9.636;2023-03-01T12:50:37;3.72;78.08
70851;DHT22;58475;49.662;9.636;2023-03-01T12:53:04;3.79;78.83
70851;DHT22;58475;49.662;9.636;2023-03-01T12:55:33;3.76;78.05
70851;DHT22;58475;49.662;9.636;2023-03-01T13:06:27;3.93;78.77
70851;DHT22;58475;49.662;9.636;2023-03-01T13:09:01;3.95;78.34
70851;DHT22;58475;49.662;9.636;2023-03-01T13:11:29;4.03;78.41
70851;DHT22;58475;49.662;9.636;2023-03-01T13:16:45;4.04;78.28
70851;DHT22;58475;49.662;9.636;2023-03-01T13:19:21;4.07;77.92
70851;DHT22;58475;49.662;9.636;2023-03-01T13:21:49;4.07;77.86
70851;DHT22;58475;49.662;9.636;2023-03-01T13:24:40;4.20;79.09
70851;DHT22;58475;49.662;9.636;2023-03-01T13:29:59;4.25;77.65
70851;DHT22;58475;49.662;9.636;2023-03-01T13:32:34;4.24;78.28
70851;DHT22;58475;49.662;9.636;2023-03-01T13:37:43;4.41;78.39
70851;DHT22;58475;49.662;9.636;2023-03-01T13:42:48;4.54;78.60
70851;DHT22;58475;49.662;9.636;2023-03-01T13:45:24;4.59;78.90
70851;DHT22;58475;49.662;9.636;2023-03-01T13:48:28;4.71;78.49
70851;DHT22;58475;49.662;9.636;2023-03-01T13:51:03;4.71;78.20
70851;DHT22;58475;49.662;9.636;2023-03-01T13:53:33;4.80;77.97
70851;DHT22;58475;49.662;9.636;2023-03-01T13:56:11;4.87;78.29
70851;DHT22;58475;49.662;9.636;2023-03-01T13:58:52;4.90;77.99
70851;DHT22;58475;49.662;9.636;2023-03-01T14:01:33;4.87;77.40
70851;DHT22;58475;49.662;9.636;2023-03-01T14:03:59;5.01;78.33
70851;DHT22;58475;49.662;9.636;2023-03-01T14:06:32;5.10;77.52
70851;DHT22;58475;49.662;9.636;2023-03-01T14:09:14;5.12;77.28
70851;DHT22;58475;49.662;9.636;2023-03-01T14:20:23;5.47;77.85
70851;DHT22;58475;49.662;9.636;2023-03-01T14:22:53;5.51;77.08
70851;DHT22;58475;49.662;9.636;2023-03-01T14:25:33;5.64;77.56
70851;DHT22;58475;49.662;9.636;2023-03-01T14:28:18;5.59;76.31
70851;DHT22;58475;49.662;9.636;2023-03-01T14:30:52;5.69;77.13
70851;DHT22;58475;49.662;9.636;2023-03-01T14:36:01;5.71;75.33
70851;DHT22;58475;49.662;9.636;2023-03-01T14:40:59;5.68;75.37
70851;DHT22;58475;49.662;9.636;2023-03-01T14:43:28;5.68;74.98
70851;DHT22;58475;49.662;9.636;2023-03-01T14:45:54;5.68;74.87
70851;DHT22;58475;49.662;9.636;2023-03-01T14:48:20;5.81;75.74
70851;DHT22;58475;49.662;9.636;2023-03-01T14:50:46;5.99;76.37
70851;DHT22;58475;49.662;9.636;2023-03-01T14:53:24;5.95;74.85
70851;DHT22;58475;49.662;9.636;2023-03-01T14:55:53;5.95;75.38
70851;DHT22;58475;49.662;9.636;2023-03-01T14:58:22;6.05;74.85
70851;DHT22;58475;49.662;9.636;2023-03-01T15:00:53;6.14;75.71
70851;DHT22;58475;49.662;9.636;2023-03-01T15:03:32;6.13;75.23
70851;DHT22;58475;49.662;9.636;2023-03-01T15:06:01;6.38;76.18
70851;DHT22;58475;49.662;9.636;2023-03-01T15:08:27;6.40;75.44
70851;DHT22;58475;49.662;9.636;2023-03-01T15:13:40;6.22;74.59
70851;DHT22;58475;49.662;9.636;2023-03-01T15:18:32;6.61;75.38
70851;DHT22;58475;49.662;9.636;2023-03-01T15:21:15;6.68;74.69
70851;DHT22;58475;49.662;9.636;2023-03-01T15:23:40;6.67;74.76
70851;DHT22;58475;49.662;9.636;2023-03-01T15:26:16;6.87;75.40
70851;DHT22;58475;49.662;9.636;2023-03-01T15:28:50;6.98;75.43
70851;DHT22;58475;49.662;9.636;2023-03-01T15:31:22;7.06;75.62
70851;DHT22;58475;49.662;9.636;2023-03-01T15:33:48;7.11;75.29
70851;DHT22;58475;49.662;9.636;2023-03-01T15:38:56;7.05;74.87
70851;DHT22;58475;49.662;9.636;2023-03-01T15:43:54;6.95;74.17
70851;DHT22;58475;49.662;9.636;2023-03-01T15:48:53;7.12;75.29
70851;DHT22;58475;49.662;9.636;2023-03-01T15:51:34;7.15;75.20
70851;DHT22;58475;49.662;9.636;2023-03-01T15:54:24;7.20;75.31
70851;DHT22;58475;49.662;9.636;2023-03-01T15:56:50;7.20;75.81
70851;DHT22;58475;49.662;9.636;2023-03-01T15:59:17;7.23;75.69
70851;DHT22;58475;49.662;9.636;2023-03-01T16:01:43;7.27;75.59
70851;DHT22;58475;49.662;9.636;2023-03-01T16:04:13;7.27;76.01
70851;DHT22;58475;49.662;9.636;2023-03-01T16:06:52;7.25;75.09
70851;DHT22;58475;49.662;9.636;2023-03-01T16:09:24;7.26;75.92
70851;DHT22;58475;49.662;9.636;2023-03-01T16:11:52;7.25;75.68
70851;DHT22;58475;49.662;9.636;2023-03-01T16:14:17;7.27;75.71
70851;DHT22;58475;49.662;9.636;2023-03-01T16:16:44;7.25;75.34
70851;DHT22;58475;49.662;9.636;2023-03-01T16:19:09;7.22;75.41
70851;DHT22;58475;49.662;9.636;2023-03-01T16:21:35;7.19;75.48
70851;DHT22;58475;49.662;9.636;2023-03-01T16:24:01;7.16;75.66
70851;DHT22;58475;49.662;9.636;2023-03-01T16:26:26;7.12;75.40
70851;DHT22;58475;49.662;9.636;2023-03-01T16:28:55;7.09;75.54
70851;DHT22;58475;49.662;9.636;2023-03-01T16:31:21;7.03;75.82
70851;DHT22;58475;49.662;9.636;2023-03-01T16:33:47;6.98;75.75
70851;DHT22;58475;49.662;9.636;2023-03-01T16:36:16;6.95;75.70
70851;DHT22;58475;49.662;9.636;2023-03-01T16:38:42;6.77;75.80
70851;DHT22;58475;49.662;9.636;2023-03-01T16:41:15;6.81;75.83
70851;DHT22;58475;49.662;9.636;2023-03-01T16:43:42;6.77;75.88
70851;DHT22;58475;49.662;9.636;2023-03-01T16:46:12;6.68;76.06
70851;DHT22;58475;49.662;9.636;2023-03-01T16:48:38;6.61;76.07
70851;DHT22;58475;49.662;9.636;2023-03-01T16:51:04;6.55;76.30
70851;DHT22;58475;49.662;9.636;2023-03-01T16:53:30;6.47;76.36
70851;DHT22;58475;49.662;9.636;2023-03-01T16:55:59;6.41;76.62
70851;DHT22;58475;49.662;9.636;2023-03-01T16:58:24;6.34;76.40
70851;DHT22;58475;49.662;9.636;2023-03-01T17:00:52;6.29;76.81
70851;DHT22;58475;49.662;9.636;2023-03-01T17:03:22;6.20;76.83
70851;DHT22;58475;49.662;9.636;2023-03-01T17:05:48;6.14;76.97
70851;DHT22;58475;49.662;9.636;2023-03-01T17:08:14;6.07;76.97
70851;DHT22;58475;49.662;9.636;2023-03-01T17:10:40;6.01;77.04
70851;DHT22;58475;49.662;9.636;2023-03-01T17:13:08;5.92;77.25
70851;DHT22;58475;49.662;9.636;2023-03-01T17:15:37;5.86;77.35
70851;DHT22;58475;49.662;9.636;2023-03-01T17:18:02;5.79;77.41
70851;DHT22;58475;49.662;9.636;2023-03-01T17:20:28;5.71;77.37
70851;DHT22;58475;49.662;9.636;2023-03-01T17:22:53;5.64;77.49
70851;DHT22;58475;49.662;9.636;2023-03-01T17:25:19;5.58;77.64
70851;DHT22;58475;49.662;9.636;2023-03-01T17:27:45;5.54;77.64
70851;DHT22;58475;49.662;9.636;2023-03-01T17:30:12;5.45;77.66
70851;DHT22;58475;49.662;9.636;2023-03-01T17:32:38;5.41;77.70
70851;DHT22;58475;49.662;9.636;2023-03-01T17:35:04;5.34;77.79
70851;DHT22;58475;49.662;9.636;2023-03-01T17:37:29;5.28;77.84
70851;DHT22;58475;49.662;9.636;2023-03-01T17:39:56;5.23;77.94
70851;DHT22;58475;49.662;9.636;2023-03-01T17:42:22;5.17;78.04
70851;DHT22;58475;49.662;9.636;2023-03-01T17:44:56;5.14;78.04
70851;DHT22;58475;49.662;9.636;2023-03-01T17:47:22;5.06;78.14